createdAt,value
2023-06-15T00:00:11.886Z,89681.28
2023-06-15T00:02:38.276Z,89673.47
2023-06-15T00:05:04.627Z,89668.53
2023-06-15T00:07:30.934Z,89678.63
2023-06-15T00:09:57.246Z,89677.47
2023-06-15T00:12:23.579Z,89681.72
2023-06-15T00:14:49.897Z,89675.75
2023-06-15T00:17:16.218Z,89680.00
2023-06-15T00:19:42.536Z,89683.31
2023-06-15T00:22:08.838Z,89687.34
2023-06-15T00:24:35.174Z,89685.66
2023-06-15T00:27:01.499Z,89686.53
2023-06-15T00:29:27.788Z,89691.41
2023-06-15T00:31:54.125Z,89685.66
2023-06-15T00:34:20.503Z,89693.66
2023-06-15T00:36:46.830Z,89679.91
2023-06-15T00:39:13.133Z,89686.19
2023-06-15T00:41:39.431Z,89689.75
2023-06-15T00:44:05.735Z,89685.94
2023-06-15T00:46:32.085Z,89692.13
2023-06-15T00:48:58.408Z,89688.28
2023-06-15T00:51:24.724Z,89695.06
2023-06-15T00:53:51.040Z,89688.47
2023-06-15T00:56:17.336Z,89693.88
2023-06-15T00:58:43.647Z,89698.56
2023-06-15T01:01:09.964Z,89688.16
2023-06-15T01:03:36.373Z,89691.53
2023-06-15T01:06:02.814Z,89695.63
2023-06-15T01:08:29.136Z,89698.25
2023-06-15T01:10:55.486Z,89693.59
2023-06-15T01:13:21.805Z,89695.09
2023-06-15T01:15:48.134Z,89699.25
2023-06-15T01:18:14.464Z,89694.66
2023-06-15T01:20:41.079Z,89689.34
2023-06-15T01:23:07.567Z,89698.94
2023-06-15T01:25:33.879Z,89699.00
2023-06-15T01:28:00.241Z,89699.13
2023-06-15T01:30:26.571Z,89697.44
2023-06-15T01:32:52.930Z,89705.59
2023-06-15T01:35:19.588Z,89705.63
2023-06-15T01:37:46.024Z,89704.66
2023-06-15T01:40:12.330Z,89711.84
2023-06-15T01:42:38.640Z,89707.47
2023-06-15T01:45:05.006Z,89707.84
2023-06-15T01:47:31.378Z,89702.72
2023-06-15T01:49:57.701Z,89703.44
2023-06-15T01:52:24.025Z,89709.31
2023-06-15T01:54:50.361Z,89718.06
2023-06-15T01:57:16.679Z,89723.06
2023-06-15T01:59:43.015Z,89714.72
2023-06-15T02:02:09.337Z,89720.03
2023-06-15T02:04:35.712Z,89719.84
2023-06-15T02:07:02.023Z,89719.69
2023-06-15T02:09:28.361Z,89728.09
2023-06-15T02:11:54.678Z,89718.31
2023-06-15T02:14:20.967Z,89713.75
2023-06-15T02:16:48.809Z,89725.78
2023-06-15T02:19:17.105Z,89717.22
2023-06-15T02:21:43.475Z,89727.66
2023-06-15T02:24:09.833Z,89726.06
2023-06-15T02:26:36.247Z,89730.97
2023-06-15T02:29:02.590Z,89734.00
2023-06-15T02:31:28.912Z,89739.28
2023-06-15T02:33:55.325Z,89727.81
2023-06-15T02:36:21.701Z,89735.88
2023-06-15T02:38:48.020Z,89732.50
2023-06-15T02:41:14.365Z,89735.25
2023-06-15T02:43:40.691Z,89740.41
2023-06-15T02:46:07.028Z,89739.53
2023-06-15T02:48:33.354Z,89740.16
2023-06-15T02:50:59.672Z,89737.50
2023-06-15T02:53:26.010Z,89733.81
2023-06-15T02:55:52.324Z,89740.25
2023-06-15T02:58:18.659Z,89740.66
2023-06-15T03:00:44.980Z,89742.34
2023-06-15T03:03:11.311Z,89747.69
2023-06-15T03:05:37.640Z,89749.06
2023-06-15T03:08:04.166Z,89743.50
2023-06-15T03:10:30.654Z,89746.06
2023-06-15T03:12:56.986Z,89754.19
2023-06-15T03:15:23.300Z,89750.81
2023-06-15T03:17:49.705Z,89753.13
2023-06-15T03:20:16.597Z,89747.19
2023-06-15T03:22:42.966Z,89754.78
2023-06-15T03:25:09.277Z,89751.94
2023-06-15T03:27:35.606Z,89751.09
2023-06-15T03:30:02.013Z,89756.59
2023-06-15T03:32:28.398Z,89758.25
2023-06-15T03:34:54.781Z,89754.88
2023-06-15T03:37:21.115Z,89762.59
2023-06-15T03:39:47.421Z,89762.16
2023-06-15T03:42:13.755Z,89759.53
2023-06-15T03:44:40.123Z,89766.63
2023-06-15T03:47:06.474Z,89766.28
2023-06-15T03:49:32.809Z,89766.69
2023-06-15T03:51:59.136Z,89773.38
2023-06-15T03:54:25.487Z,89768.31
2023-06-15T03:56:51.858Z,89772.94
2023-06-15T03:59:18.215Z,89774.72
2023-06-15T04:01:44.537Z,89777.16
2023-06-15T04:04:11.227Z,89780.44
2023-06-15T04:06:37.696Z,89784.00
2023-06-15T04:09:03.980Z,89786.34
2023-06-15T04:11:30.353Z,89785.00
2023-06-15T04:13:56.658Z,89786.03
2023-06-15T04:16:22.933Z,89783.16
2023-06-15T04:18:49.269Z,89789.47
2023-06-15T04:21:15.600Z,89796.63
2023-06-15T04:23:41.998Z,89799.06
2023-06-15T04:26:08.375Z,89797.19
2023-06-15T04:28:34.692Z,89799.34
2023-06-15T04:31:01.065Z,89791.84
2023-06-15T04:33:27.474Z,89800.78
2023-06-15T04:35:53.809Z,89805.00
2023-06-15T04:38:20.110Z,89799.94
2023-06-15T04:40:46.624Z,89802.84
2023-06-15T04:43:13.378Z,89804.91
2023-06-15T04:45:39.717Z,89805.19
2023-06-15T04:48:06.122Z,89810.44
2023-06-15T04:50:32.460Z,89802.97
2023-06-15T04:52:58.795Z,89802.19
2023-06-15T04:55:25.100Z,89797.34
2023-06-15T04:57:51.425Z,89805.06
2023-06-15T05:00:17.766Z,89806.16
2023-06-15T05:02:44.278Z,89794.38
2023-06-15T05:05:10.668Z,89802.34
2023-06-15T05:07:37.028Z,89794.38
2023-06-15T05:10:03.399Z,89806.84
2023-06-15T05:12:29.702Z,89802.06
2023-06-15T05:14:56.014Z,89801.25
2023-06-15T05:17:22.425Z,89798.34
2023-06-15T05:19:48.833Z,89800.56
2023-06-15T05:22:15.139Z,89802.28
2023-06-15T05:24:41.447Z,89802.25
2023-06-15T05:27:07.747Z,89799.28
2023-06-15T05:29:34.060Z,89800.69
2023-06-15T05:32:00.513Z,89801.78
2023-06-15T05:34:26.904Z,89816.16
2023-06-15T05:36:57.602Z,89813.72
2023-06-15T05:39:24.485Z,89808.56
2023-06-15T05:41:50.782Z,89814.84
2023-06-15T05:44:17.103Z,89814.41
2023-06-15T05:46:43.470Z,89815.34
2023-06-15T05:49:09.779Z,89814.44
2023-06-15T05:51:36.093Z,89811.28
2023-06-15T05:54:02.431Z,89820.50
2023-06-15T05:56:28.753Z,89817.75
2023-06-15T05:58:55.074Z,89814.06
2023-06-15T06:01:21.388Z,89822.44
2023-06-15T06:03:47.696Z,89818.03
2023-06-15T06:06:14.058Z,89818.81
2023-06-15T06:08:40.431Z,89814.63
2023-06-15T06:11:06.766Z,89811.06
2023-06-15T06:13:33.078Z,89808.31
2023-06-15T06:15:59.387Z,89815.53
2023-06-15T06:18:25.748Z,89814.44
2023-06-15T06:20:52.134Z,89813.81
2023-06-15T06:23:18.441Z,89814.31
2023-06-15T06:25:44.744Z,89823.97
2023-06-15T06:28:11.084Z,89826.25
2023-06-15T06:30:37.441Z,89825.25
2023-06-15T06:33:03.885Z,89826.28
2023-06-15T06:35:30.231Z,89825.44
2023-06-15T06:37:56.568Z,89821.66
2023-06-15T06:40:22.924Z,89825.47
2023-06-15T06:42:49.256Z,89826.09
2023-06-15T06:45:15.786Z,89826.94
2023-06-15T06:47:42.432Z,89817.94
2023-06-15T06:50:08.841Z,89825.88
2023-06-15T06:52:35.183Z,89828.47
2023-06-15T06:55:01.492Z,89826.63
2023-06-15T06:57:29.282Z,89822.16
2023-06-15T06:59:55.778Z,89818.00
2023-06-15T07:02:22.219Z,89821.47
2023-06-15T07:04:48.619Z,89812.31
2023-06-15T07:07:14.957Z,89816.75
2023-06-15T07:09:41.310Z,89813.78
2023-06-15T07:12:07.624Z,89818.94
2023-06-15T07:14:33.936Z,89809.00
2023-06-15T07:17:00.271Z,89809.84
2023-06-15T07:19:26.616Z,89813.84
2023-06-15T07:21:52.954Z,89814.16
2023-06-15T07:24:19.363Z,89816.28
2023-06-15T07:26:45.702Z,89813.91
2023-06-15T07:29:12.029Z,89810.25
2023-06-15T07:31:38.344Z,89810.56
2023-06-15T07:34:04.656Z,89813.78
2023-06-15T07:36:30.975Z,89812.38
2023-06-15T07:38:57.343Z,89812.97
2023-06-15T07:41:23.697Z,89815.03
2023-06-15T07:43:50.006Z,89819.66
2023-06-15T07:46:16.337Z,89813.44
2023-06-15T07:48:42.679Z,89815.66
2023-06-15T07:51:09.992Z,89811.97
2023-06-15T07:53:40.179Z,89813.78
2023-06-15T07:56:06.511Z,89803.59
2023-06-15T07:58:32.851Z,89802.06
2023-06-15T08:00:59.188Z,89797.84
2023-06-15T08:03:25.586Z,89804.56
2023-06-15T08:05:51.988Z,89802.41
2023-06-15T08:08:18.303Z,89802.13
2023-06-15T08:10:47.103Z,89795.50
2023-06-15T08:13:14.492Z,89798.44
2023-06-15T08:15:40.869Z,89797.81
2023-06-15T08:18:07.281Z,89793.69
2023-06-15T08:20:33.621Z,89797.00
2023-06-15T08:22:59.959Z,89796.84
2023-06-15T08:25:26.298Z,89798.72
2023-06-15T08:27:52.713Z,89794.91
2023-06-15T08:30:19.276Z,89798.94
2023-06-15T08:32:45.896Z,89795.66
2023-06-15T08:35:12.273Z,89800.97
2023-06-15T08:37:38.595Z,89790.97
2023-06-15T08:40:04.988Z,89796.59
2023-06-15T08:42:31.377Z,89794.88
2023-06-15T08:44:57.678Z,89800.78
2023-06-15T08:47:24.075Z,89793.53
2023-06-15T08:49:50.412Z,89787.38
2023-06-15T08:52:16.744Z,89786.41
2023-06-15T08:54:43.112Z,89787.97
2023-06-15T08:57:09.411Z,89788.41
2023-06-15T08:59:36.391Z,89786.19
2023-06-15T09:02:02.710Z,89791.31
2023-06-15T09:04:29.140Z,89786.22
2023-06-15T09:06:55.510Z,89792.25
2023-06-15T09:09:21.834Z,89788.97
2023-06-15T09:11:48.159Z,89792.25
2023-06-15T09:14:14.593Z,89792.59
2023-06-15T09:16:41.006Z,89802.38
2023-06-15T09:19:07.312Z,89797.56
2023-06-15T09:21:33.635Z,89789.69
2023-06-15T09:23:59.986Z,89788.84
2023-06-15T09:26:26.311Z,89793.88
2023-06-15T09:28:52.608Z,89782.69
2023-06-15T09:31:18.944Z,89788.72
2023-06-15T09:33:45.256Z,89790.31
2023-06-15T09:36:11.570Z,89786.41
2023-06-15T09:38:37.875Z,89796.25
2023-06-15T09:41:04.219Z,89784.84
2023-06-15T09:43:30.563Z,89788.56
2023-06-15T09:45:56.870Z,89783.94
2023-06-15T09:48:23.191Z,89787.22
2023-06-15T09:50:49.536Z,89788.16
2023-06-15T09:53:15.900Z,89794.16
2023-06-15T09:55:42.224Z,89783.53
2023-06-15T09:58:11.269Z,89782.38
2023-06-15T10:00:37.754Z,89774.34
2023-06-15T10:03:04.139Z,89774.25
2023-06-15T10:05:30.530Z,89777.16
2023-06-15T10:07:56.841Z,89770.69
2023-06-15T10:10:25.888Z,89768.88
2023-06-15T10:12:53.214Z,89779.66
2023-06-15T10:15:19.523Z,89773.19
2023-06-15T10:17:45.876Z,89776.38
2023-06-15T10:20:12.255Z,89761.94
2023-06-15T10:22:38.584Z,89763.84
2023-06-15T10:25:04.961Z,89762.66
2023-06-15T10:27:31.245Z,89760.59
2023-06-15T10:29:57.574Z,89760.34
2023-06-15T10:32:23.962Z,89760.94
2023-06-15T10:34:50.279Z,89764.38
2023-06-15T10:37:16.806Z,89769.53
2023-06-15T10:39:43.444Z,89759.78
2023-06-15T10:42:09.779Z,89764.72
2023-06-15T10:44:36.125Z,89764.81
2023-06-15T10:47:02.515Z,89755.34
2023-06-15T10:49:28.844Z,89755.09
2023-06-15T10:51:55.205Z,89763.13
2023-06-15T10:54:21.560Z,89758.78
2023-06-15T10:56:47.870Z,89765.88
2023-06-15T10:59:14.188Z,89763.72
2023-06-15T11:01:40.492Z,89758.16
2023-06-15T11:04:06.830Z,89765.44
2023-06-15T11:06:33.171Z,89760.56
2023-06-15T11:08:59.493Z,89764.47
2023-06-15T11:11:25.810Z,89768.59
2023-06-15T11:13:52.138Z,89757.41
2023-06-15T11:16:18.479Z,89757.16
2023-06-15T11:18:44.830Z,89758.38
2023-06-15T11:21:11.145Z,89746.44
2023-06-15T11:23:37.457Z,89758.63
2023-06-15T11:26:03.890Z,89753.72
2023-06-15T11:28:36.920Z,89753.50
2023-06-15T11:31:04.533Z,89756.16
2023-06-15T11:33:30.878Z,89757.59
2023-06-15T11:35:58.065Z,89754.41
2023-06-15T11:38:25.824Z,89761.25
2023-06-15T11:40:52.161Z,89756.09
2023-06-15T11:43:18.491Z,89755.66
2023-06-15T11:45:44.808Z,89749.50
2023-06-15T11:48:11.203Z,89758.09
2023-06-15T11:50:37.623Z,89757.81
2023-06-15T11:53:03.937Z,89747.59
2023-06-15T11:55:30.263Z,89750.28
2023-06-15T11:57:56.595Z,89755.91
2023-06-15T12:00:22.925Z,89737.78
2023-06-15T12:02:49.250Z,89748.03
2023-06-15T12:05:15.811Z,89747.00
2023-06-15T12:07:42.356Z,89737.34
2023-06-15T12:10:08.742Z,89751.72
2023-06-15T12:12:35.227Z,89740.75
2023-06-15T12:15:01.541Z,89735.63
2023-06-15T12:17:27.882Z,89729.25
2023-06-15T12:19:54.277Z,89734.91
2023-06-15T12:22:32.791Z,89736.25
2023-06-15T12:25:03.169Z,89733.69
2023-06-15T12:27:29.515Z,89738.81
2023-06-15T12:29:55.870Z,89734.63
2023-06-15T12:32:22.354Z,89731.75
2023-06-15T12:34:48.680Z,89728.81
2023-06-15T12:37:15.034Z,89736.13
2023-06-15T12:39:41.336Z,89737.38
2023-06-15T12:42:07.669Z,89738.34
2023-06-15T12:44:33.999Z,89731.00
2023-06-15T12:47:00.313Z,89725.16
2023-06-15T12:49:26.609Z,89726.78
2023-06-15T12:51:55.701Z,89730.22
2023-06-15T12:54:22.562Z,89724.69
2023-06-15T12:56:48.885Z,89718.56
2023-06-15T12:59:15.186Z,89719.28
2023-06-15T13:01:41.536Z,89717.91
2023-06-15T13:04:08.443Z,89719.78
2023-06-15T13:06:34.865Z,89712.44
2023-06-15T13:09:01.220Z,89714.25
2023-06-15T13:11:27.540Z,89711.28
2023-06-15T13:13:53.851Z,89714.47
2023-06-15T13:16:20.202Z,89727.16
2023-06-15T13:18:46.554Z,89712.00
2023-06-15T13:21:12.852Z,89719.56
2023-06-15T13:23:39.193Z,89709.97
2023-06-15T13:26:05.512Z,89709.38
2023-06-15T13:28:31.834Z,89710.97
2023-06-15T13:30:58.153Z,89713.28
2023-06-15T13:33:24.460Z,89712.44
2023-06-15T13:35:50.790Z,89713.66
2023-06-15T13:38:17.100Z,89712.78
2023-06-15T13:40:43.409Z,89707.56
2023-06-15T13:43:09.766Z,89713.13
2023-06-15T13:45:36.113Z,89704.34
2023-06-15T13:48:02.500Z,89714.00
2023-06-15T13:50:28.898Z,89713.72
2023-06-15T13:52:55.290Z,89715.75
2023-06-15T13:55:21.602Z,89712.47
2023-06-15T13:57:47.946Z,89720.44
2023-06-15T14:00:14.396Z,89708.00
2023-06-15T14:02:40.805Z,89707.53
2023-06-15T14:05:07.224Z,89718.13
2023-06-15T14:07:33.576Z,89714.72
2023-06-15T14:09:59.891Z,89716.00
2023-06-15T14:12:26.213Z,89712.22
2023-06-15T14:14:52.597Z,89710.06
2023-06-15T14:17:18.965Z,89700.03
2023-06-15T14:19:45.268Z,89714.00
2023-06-15T14:22:11.580Z,89713.00
2023-06-15T14:24:38.044Z,89705.66
2023-06-15T14:27:04.516Z,89706.47
2023-06-15T14:29:30.840Z,89709.84
2023-06-15T14:31:57.194Z,89712.88
2023-06-15T14:34:23.585Z,89711.03
2023-06-15T14:36:49.953Z,89713.38
2023-06-15T14:39:16.310Z,89708.19
2023-06-15T14:41:42.623Z,89709.44
2023-06-15T14:44:08.918Z,89708.09
2023-06-15T14:46:35.252Z,89706.44
2023-06-15T14:49:01.610Z,89720.69
2023-06-15T14:51:28.854Z,89711.09
2023-06-15T14:53:55.256Z,89712.59
2023-06-15T14:56:21.566Z,89710.22
2023-06-15T14:58:47.872Z,89704.09
2023-06-15T15:01:14.224Z,89704.47
2023-06-15T15:03:40.624Z,89709.16
2023-06-15T15:06:06.996Z,89711.31
2023-06-15T15:08:33.333Z,89705.28
2023-06-15T15:10:59.628Z,89706.88
2023-06-15T15:13:25.966Z,89705.16
2023-06-15T15:15:52.300Z,89711.94
2023-06-15T15:18:18.613Z,89715.78
2023-06-15T15:20:44.937Z,89710.31
2023-06-15T15:23:11.267Z,89712.72
2023-06-15T15:25:38.784Z,89710.50
2023-06-15T15:28:05.201Z,89709.53
2023-06-15T15:30:31.534Z,89721.03
2023-06-15T15:32:57.882Z,89713.75
2023-06-15T15:35:24.250Z,89717.66
2023-06-15T15:37:50.564Z,89723.25
2023-06-15T15:40:17.067Z,89726.19
2023-06-15T15:42:43.608Z,89716.94
2023-06-15T15:45:09.915Z,89718.63
2023-06-15T15:47:36.295Z,89720.34
2023-06-15T15:50:02.710Z,89724.72
2023-06-15T15:52:29.093Z,89718.63
2023-06-15T15:54:55.433Z,89719.34
2023-06-15T15:57:21.813Z,89704.25
2023-06-15T15:59:48.144Z,89720.13
2023-06-15T16:02:14.466Z,89711.19
2023-06-15T16:04:40.803Z,89715.19
2023-06-15T16:07:07.150Z,89719.91
2023-06-15T16:09:33.467Z,89713.94
2023-06-15T16:11:59.766Z,89714.88
2023-06-15T16:14:26.114Z,89721.63
2023-06-15T16:16:52.501Z,89721.19
2023-06-15T16:19:18.854Z,89715.53
2023-06-15T16:21:45.180Z,89717.81
2023-06-15T16:24:11.509Z,89714.56
2023-06-15T16:26:37.901Z,89733.63
2023-06-15T16:29:04.224Z,89720.91
2023-06-15T16:31:30.523Z,89730.13
2023-06-15T16:33:56.849Z,89727.75
2023-06-15T16:36:23.201Z,89728.81
2023-06-15T16:38:49.518Z,89725.53
2023-06-15T16:41:15.827Z,89730.09
2023-06-15T16:43:42.128Z,89736.09
2023-06-15T16:46:08.450Z,89723.81
2023-06-15T16:48:34.789Z,89731.13
2023-06-15T16:51:01.119Z,89737.59
2023-06-15T16:53:27.422Z,89723.09
2023-06-15T16:55:53.731Z,89740.56
2023-06-15T16:58:21.942Z,89724.28
2023-06-15T17:00:49.006Z,89731.88
2023-06-15T17:03:15.445Z,89742.22
2023-06-15T17:05:41.882Z,89733.63
2023-06-15T17:08:08.187Z,89744.31
2023-06-15T17:10:34.489Z,89748.66
2023-06-15T17:13:00.860Z,89743.69
2023-06-15T17:15:27.260Z,89749.69
2023-06-15T17:17:53.579Z,89753.72
2023-06-15T17:20:20.224Z,89755.03
2023-06-15T17:22:46.738Z,89751.75
2023-06-15T17:25:13.034Z,89757.00
2023-06-15T17:27:39.339Z,89764.47
2023-06-15T17:30:05.658Z,89767.19
2023-06-15T17:32:31.975Z,89762.63
2023-06-15T17:34:58.356Z,89764.53
2023-06-15T17:37:24.676Z,89774.34
2023-06-15T17:39:51.000Z,89774.56
2023-06-15T17:42:17.308Z,89775.19
2023-06-15T17:44:43.632Z,89780.06
2023-06-15T17:47:09.955Z,89778.84
2023-06-15T17:49:36.274Z,89782.75
2023-06-15T17:52:02.606Z,89791.44
2023-06-15T17:54:28.954Z,89783.56
2023-06-15T17:56:55.256Z,89789.50
2023-06-15T17:59:21.569Z,89782.13
2023-06-15T18:01:47.906Z,89791.50
2023-06-15T18:04:14.313Z,89791.09
2023-06-15T18:06:40.745Z,89788.63
2023-06-15T18:09:07.034Z,89786.16
2023-06-15T18:11:34.882Z,89796.94
2023-06-15T18:14:01.176Z,89797.47
2023-06-15T18:16:27.485Z,89791.06
2023-06-15T18:18:53.845Z,89802.56
2023-06-15T18:21:20.179Z,89800.88
2023-06-15T18:23:46.570Z,89798.00
2023-06-15T18:26:12.946Z,89799.22
2023-06-15T18:28:39.277Z,89802.56
2023-06-15T18:31:05.636Z,89809.56
2023-06-15T18:33:32.010Z,89804.25
2023-06-15T18:35:58.320Z,89816.94
2023-06-15T18:38:24.676Z,89816.22
2023-06-15T18:40:51.054Z,89813.78
2023-06-15T18:43:17.396Z,89814.53
2023-06-15T18:45:43.783Z,89813.91
2023-06-15T18:48:10.291Z,89818.03
2023-06-15T18:50:36.631Z,89820.22
2023-06-15T18:53:02.971Z,89820.59
2023-06-15T18:55:29.302Z,89815.53
2023-06-15T18:57:55.630Z,89818.00
2023-06-15T19:00:21.947Z,89824.81
2023-06-15T19:02:48.387Z,89821.41
2023-06-15T19:05:14.881Z,89824.44
2023-06-15T19:07:41.229Z,89823.94
2023-06-15T19:10:07.614Z,89830.28
2023-06-15T19:12:34.010Z,89829.31
2023-06-15T19:15:00.395Z,89829.59
2023-06-15T19:17:26.776Z,89827.22
2023-06-15T19:19:53.159Z,89833.44
2023-06-15T19:22:19.572Z,89837.06
2023-06-15T19:24:45.962Z,89835.03
2023-06-15T19:27:12.296Z,89836.72
2023-06-15T19:29:38.966Z,89834.75
2023-06-15T19:32:05.434Z,89845.66
2023-06-15T19:34:31.811Z,89850.25
2023-06-15T19:36:58.187Z,89853.47
2023-06-15T19:39:24.575Z,89852.38
2023-06-15T19:41:50.957Z,89855.88
2023-06-15T19:44:17.369Z,89856.09
2023-06-15T19:46:43.770Z,89862.78
2023-06-15T19:49:10.178Z,89868.81
2023-06-15T19:51:36.534Z,89872.56
2023-06-15T19:54:02.983Z,89880.66
2023-06-15T19:56:29.420Z,89879.53
2023-06-15T19:58:55.773Z,89881.13
2023-06-15T20:01:22.206Z,89883.53
2023-06-15T20:03:48.768Z,89890.44
2023-06-15T20:06:15.225Z,89895.22
2023-06-15T20:08:41.602Z,89895.63
2023-06-15T20:11:08.004Z,89903.66
2023-06-15T20:13:34.384Z,89903.66
2023-06-15T20:16:01.531Z,89912.78
2023-06-15T20:18:28.695Z,89909.88
2023-06-15T20:20:55.020Z,89915.75
2023-06-15T20:23:21.386Z,89919.59
2023-06-15T20:25:47.697Z,89924.06
2023-06-15T20:28:14.034Z,89922.56
2023-06-15T20:30:40.346Z,89924.78
2023-06-15T20:33:06.702Z,89925.22
2023-06-15T20:35:33.083Z,89927.72
2023-06-15T20:37:59.439Z,89925.34
2023-06-15T20:40:25.775Z,89932.59
2023-06-15T20:42:52.115Z,89925.50
2023-06-15T20:45:18.450Z,89929.63
2023-06-15T20:47:44.810Z,89930.09
2023-06-15T20:50:11.250Z,89928.03
2023-06-15T20:52:37.588Z,89930.53
2023-06-15T20:55:03.912Z,89934.53
2023-06-15T20:57:30.213Z,89936.13
2023-06-15T20:59:56.532Z,89937.28
2023-06-15T21:02:24.491Z,89934.91
2023-06-15T21:04:52.042Z,89930.31
2023-06-15T21:07:18.339Z,89923.28
2023-06-15T21:09:44.630Z,89935.81
2023-06-15T21:12:11.580Z,89932.19
2023-06-15T21:14:37.886Z,89937.19
2023-06-15T21:17:04.271Z,89934.25
2023-06-15T21:19:30.682Z,89930.75
2023-06-15T21:21:56.969Z,89936.13
2023-06-15T21:24:23.389Z,89937.59
2023-06-15T21:26:49.734Z,89946.09
2023-06-15T21:29:16.038Z,89939.97
2023-06-15T21:31:42.357Z,89937.59
2023-06-15T21:34:08.666Z,89936.72
2023-06-15T21:36:34.983Z,89938.94
2023-06-15T21:39:01.331Z,89944.22
2023-06-15T21:41:27.636Z,89940.41
2023-06-15T21:43:53.951Z,89945.84
2023-06-15T21:46:20.284Z,89948.78
2023-06-15T21:48:46.600Z,89948.81
2023-06-15T21:51:12.895Z,89947.78
2023-06-15T21:53:39.235Z,89949.56
2023-06-15T21:56:05.538Z,89955.16
2023-06-15T21:58:31.840Z,89956.16
2023-06-15T22:00:58.142Z,89954.06
2023-06-15T22:03:24.435Z,89950.88
2023-06-15T22:05:50.768Z,89954.13
2023-06-15T22:08:17.120Z,89954.41
2023-06-15T22:10:43.438Z,89956.00
2023-06-15T22:13:09.766Z,89956.94
2023-06-15T22:15:36.178Z,89960.75
2023-06-15T22:18:02.808Z,89959.41
2023-06-15T22:20:29.234Z,89953.19
2023-06-15T22:22:55.574Z,89951.16
2023-06-15T22:25:21.857Z,89952.00
2023-06-15T22:27:48.163Z,89956.50
2023-06-15T22:30:14.473Z,89949.09
2023-06-15T22:32:40.843Z,89961.06
2023-06-15T22:35:07.144Z,89949.94
2023-06-15T22:37:33.458Z,89960.16
2023-06-15T22:39:59.776Z,89959.31
2023-06-15T22:42:26.099Z,89961.78
2023-06-15T22:44:52.473Z,89960.19
2023-06-15T22:47:18.834Z,89954.50
2023-06-15T22:49:45.219Z,89956.38
2023-06-15T22:52:11.567Z,89951.38
2023-06-15T22:54:37.997Z,89958.47
2023-06-15T22:57:04.326Z,89954.88
2023-06-15T22:59:31.914Z,89951.63
2023-06-15T23:01:58.274Z,89953.22
2023-06-15T23:04:24.583Z,89950.88
2023-06-15T23:06:50.916Z,89954.13
2023-06-15T23:09:17.226Z,89946.75
2023-06-15T23:11:43.547Z,89950.81
2023-06-15T23:14:09.854Z,89949.84
2023-06-15T23:16:36.229Z,89951.75
2023-06-15T23:19:02.526Z,89953.25
2023-06-15T23:21:28.819Z,89946.78
2023-06-15T23:23:55.171Z,89948.00
2023-06-15T23:26:21.497Z,89949.97
2023-06-15T23:28:47.792Z,89943.41
2023-06-15T23:31:14.108Z,89954.28
2023-06-15T23:33:40.416Z,89944.91
2023-06-15T23:36:06.741Z,89947.09
2023-06-15T23:38:33.046Z,89943.16
2023-06-15T23:40:59.361Z,89945.25
2023-06-15T23:43:25.660Z,89944.41
2023-06-15T23:45:52.075Z,89939.31
2023-06-15T23:48:18.462Z,89940.34
2023-06-15T23:50:44.810Z,89933.81
2023-06-15T23:53:11.131Z,89941.75
2023-06-15T23:55:37.441Z,89940.16
2023-06-15T23:58:03.757Z,89926.97
